sensor_id;sensor_type;location;lat;lon;timestamp;P1;P2;P0
65556;PMS3003;52200;53.490;14.376;2022-11-23T00:02:25;101.00;70.33;38.67
65556;PMS3003;52200;53.490;14.376;2022-11-23T00:04:50;104.00;71.33;40.00
65556;PMS3003;52200;53.490;14.376;2022-11-23T00:07:16;97.00;70.33;40.00
65556;PMS3003;52200;53.490;14.376;2022-11-23T00:09:41;98.67;67.33;39.00
65556;PMS3003;52200;53.490;14.376;2022-11-23T00:12:07;101.00;70.67;39.33
65556;PMS3003;52200;53.490;14.376;2022-11-23T00:14:32;105.33;69.00;39.00
65556;PMS3003;52200;53.490;14.376;2022-11-23T00:16:58;99.33;71.00;39.00
65556;PMS3003;52200;53.490;14.376;2022-11-23T00:19:23;100.00;70.33;40.33
65556;PMS3003;52200;53.490;14.376;2022-11-23T00:21:49;102.33;69.33;40.33
65556;PMS3003;52200;53.490;14.376;2022-11-23T00:24:14;102.00;72.00;41.00
65556;PMS3003;52200;53.490;14.376;2022-11-23T00:26:39;98.67;69.00;38.33
65556;PMS3003;52200;53.490;14.376;2022-11-23T00:29:05;96.33;68.67;37.33
65556;PMS3003;52200;53.490;14.376;2022-11-23T00:31:30;103.33;70.33;40.33
65556;PMS3003;52200;53.490;14.376;2022-11-23T00:33:56;102.33;69.67;39.00
65556;PMS3003;52200;53.490;14.376;2022-11-23T00:36:22;104.00;72.33;40.67
65556;PMS3003;52200;53.490;14.376;2022-11-23T00:38:49;101.50;70.75;39.75
65556;PMS3003;52200;53.490;14.376;2022-11-23T00:41:19;107.75;71.75;41.25
65556;PMS3003;52200;53.490;14.376;2022-11-23T00:43:46;95.75;69.50;40.00
65556;PMS3003;52200;53.490;14.376;2022-11-23T00:46:13;102.67;71.33;40.33
65556;PMS3003;52200;53.490;14.376;2022-11-23T00:48:44;101.75;68.75;41.50
65556;PMS3003;52200;53.490;14.376;2022-11-23T00:51:12;97.75;71.00;40.00
65556;PMS3003;52200;53.490;14.376;2022-11-23T00:53:40;100.75;70.75;39.75
65556;PMS3003;52200;53.490;14.376;2022-11-23T00:56:06;99.33;69.33;38.67
65556;PMS3003;52200;53.490;14.376;2022-11-23T00:58:32;107.50;72.00;39.00
65556;PMS3003;52200;53.490;14.376;2022-11-23T01:00:59;101.00;72.25;39.25
65556;PMS3003;52200;53.490;14.376;2022-11-23T01:03:27;94.50;68.25;38.00
65556;PMS3003;52200;53.490;14.376;2022-11-23T01:05:53;100.50;69.50;39.75
65556;PMS3003;52200;53.490;14.376;2022-11-23T01:08:18;99.00;70.00;39.00
65556;PMS3003;52200;53.490;14.376;2022-11-23T01:10:44;101.33;70.33;39.00
65556;PMS3003;52200;53.490;14.376;2022-11-23T01:13:09;104.00;71.33;39.33
65556;PMS3003;52200;53.490;14.376;2022-11-23T01:15:35;98.67;71.00;38.33
65556;PMS3003;52200;53.490;14.376;2022-11-23T01:18:00;99.00;68.33;38.67
65556;PMS3003;52200;53.490;14.376;2022-11-23T01:20:26;97.67;70.00;39.33
65556;PMS3003;52200;53.490;14.376;2022-11-23T01:22:51;96.67;70.33;38.67
65556;PMS3003;52200;53.490;14.376;2022-11-23T01:25:17;96.25;69.50;38.75
65556;PMS3003;52200;53.490;14.376;2022-11-23T01:27:42;101.33;73.33;39.00
65556;PMS3003;52200;53.490;14.376;2022-11-23T01:30:08;95.00;66.33;39.00
65556;PMS3003;52200;53.490;14.376;2022-11-23T01:32:34;99.25;69.50;39.25
65556;PMS3003;52200;53.490;14.376;2022-11-23T01:34:59;99.67;71.67;39.67
65556;PMS3003;52200;53.490;14.376;2022-11-23T01:37:25;96.67;70.00;39.00
65556;PMS3003;52200;53.490;14.376;2022-11-23T01:39:51;103.67;72.00;41.67
65556;PMS3003;52200;53.490;14.376;2022-11-23T01:42:16;100.33;70.67;40.00
65556;PMS3003;52200;53.490;14.376;2022-11-23T01:44:42;101.67;73.00;40.67
65556;PMS3003;52200;53.490;14.376;2022-11-23T01:47:08;107.33;76.33;43.33
65556;PMS3003;52200;53.490;14.376;2022-11-23T01:49:38;104.75;75.25;41.50
65556;PMS3003;52200;53.490;14.376;2022-11-23T01:52:10;106.75;72.25;41.25
65556;PMS3003;52200;53.490;14.376;2022-11-23T01:54:42;108.75;75.00;42.25
65556;PMS3003;52200;53.490;14.376;2022-11-23T01:57:15;109.00;73.00;42.50
65556;PMS3003;52200;53.490;14.376;2022-11-23T01:59:45;105.50;72.25;41.50
65556;PMS3003;52200;53.490;14.376;2022-11-23T02:02:13;107.50;73.75;40.75
65556;PMS3003;52200;53.490;14.376;2022-11-23T02:04:39;102.00;73.25;41.00
65556;PMS3003;52200;53.490;14.376;2022-11-23T02:07:07;110.25;78.00;40.75
65556;PMS3003;52200;53.490;14.376;2022-11-23T02:09:34;105.25;74.00;42.50
65556;PMS3003;52200;53.490;14.376;2022-11-23T02:12:00;101.00;71.75;39.75
65556;PMS3003;52200;53.490;14.376;2022-11-23T02:14:25;106.67;74.67;41.67
65556;PMS3003;52200;53.490;14.376;2022-11-23T02:16:51;109.00;77.00;41.00
65556;PMS3003;52200;53.490;14.376;2022-11-23T02:22:18;105.00;74.75;42.00
65556;PMS3003;52200;53.490;14.376;2022-11-23T02:24:55;107.75;76.75;41.50
65556;PMS3003;52200;53.490;14.376;2022-11-23T02:27:24;110.25;77.50;42.25
65556;PMS3003;52200;53.490;14.376;2022-11-23T02:29:51;113.50;74.50;42.75
65556;PMS3003;52200;53.490;14.376;2022-11-23T02:32:18;105.50;73.75;39.25
65556;PMS3003;52200;53.490;14.376;2022-11-23T02:34:47;107.50;75.00;41.25
65556;PMS3003;52200;53.490;14.376;2022-11-23T02:37:13;103.75;73.50;39.75
65556;PMS3003;52200;53.490;14.376;2022-11-23T02:39:41;108.25;75.25;43.00
65556;PMS3003;52200;53.490;14.376;2022-11-23T02:42:10;105.00;73.00;42.50
65556;PMS3003;52200;53.490;14.376;2022-11-23T02:44:41;106.67;73.67;41.33
65556;PMS3003;52200;53.490;14.376;2022-11-23T02:47:13;101.00;72.50;41.00
65556;PMS3003;52200;53.490;14.376;2022-11-23T02:49:39;102.33;72.00;40.33
65556;PMS3003;52200;53.490;14.376;2022-11-23T02:52:06;106.00;75.50;41.75
65556;PMS3003;52200;53.490;14.376;2022-11-23T02:54:32;107.00;75.25;42.25
65556;PMS3003;52200;53.490;14.376;2022-11-23T02:56:57;105.67;73.00;41.00
65556;PMS3003;52200;53.490;14.376;2022-11-23T02:59:23;100.00;72.67;41.33
65556;PMS3003;52200;53.490;14.376;2022-11-23T03:01:49;104.00;73.00;42.33
65556;PMS3003;52200;53.490;14.376;2022-11-23T03:04:14;105.00;72.67;41.00
65556;PMS3003;52200;53.490;14.376;2022-11-23T03:06:40;105.33;74.33;42.67
65556;PMS3003;52200;53.490;14.376;2022-11-23T03:09:05;103.75;70.50;40.00
65556;PMS3003;52200;53.490;14.376;2022-11-23T03:11:31;110.00;72.00;39.33
65556;PMS3003;52200;53.490;14.376;2022-11-23T03:13:57;99.75;72.25;41.00
65556;PMS3003;52200;53.490;14.376;2022-11-23T03:16:23;110.00;72.75;40.25
65556;PMS3003;52200;53.490;14.376;2022-11-23T03:18:49;102.33;72.67;42.00
65556;PMS3003;52200;53.490;14.376;2022-11-23T03:21:15;105.00;73.00;40.00
65556;PMS3003;52200;53.490;14.376;2022-11-23T03:23:41;103.75;74.25;40.75
65556;PMS3003;52200;53.490;14.376;2022-11-23T03:26:06;103.67;73.33;40.67
65556;PMS3003;52200;53.490;14.376;2022-11-23T03:28:32;109.00;75.00;41.33
65556;PMS3003;52200;53.490;14.376;2022-11-23T03:30:58;107.33;72.33;41.33
65556;PMS3003;52200;53.490;14.376;2022-11-23T03:33:23;100.00;73.33;40.67
65556;PMS3003;52200;53.490;14.376;2022-11-23T03:35:49;101.67;72.33;42.00
65556;PMS3003;52200;53.490;14.376;2022-11-23T03:38:14;108.67;75.33;42.67
65556;PMS3003;52200;53.490;14.376;2022-11-23T03:40:40;107.00;73.67;42.00
65556;PMS3003;52200;53.490;14.376;2022-11-23T03:43:07;116.75;79.25;42.75
65556;PMS3003;52200;53.490;14.376;2022-11-23T03:45:33;103.67;72.00;42.00
65556;PMS3003;52200;53.490;14.376;2022-11-23T03:47:58;107.33;74.67;40.67
65556;PMS3003;52200;53.490;14.376;2022-11-23T03:50:24;109.00;73.33;42.00
65556;PMS3003;52200;53.490;14.376;2022-11-23T03:52:49;105.33;75.33;41.33
65556;PMS3003;52200;53.490;14.376;2022-11-23T03:55:15;110.00;78.67;42.33
65556;PMS3003;52200;53.490;14.376;2022-11-23T03:57:41;106.25;72.75;40.25
65556;PMS3003;52200;53.490;14.376;2022-11-23T04:00:07;100.00;73.33;41.67
65556;PMS3003;52200;53.490;14.376;2022-11-23T04:02:33;100.50;73.00;43.00
65556;PMS3003;52200;53.490;14.376;2022-11-23T04:04:59;100.25;72.75;41.00
65556;PMS3003;52200;53.490;14.376;2022-11-23T04:07:25;102.75;73.50;41.75
65556;PMS3003;52200;53.490;14.376;2022-11-23T04:09:51;104.00;73.67;43.00
65556;PMS3003;52200;53.490;14.376;2022-11-23T04:12:16;105.67;72.67;41.00
65556;PMS3003;52200;53.490;14.376;2022-11-23T04:14:41;103.33;71.33;42.00
65556;PMS3003;52200;53.490;14.376;2022-11-23T04:17:07;113.00;75.67;43.00
65556;PMS3003;52200;53.490;14.376;2022-11-23T04:19:32;102.33;72.00;42.00
65556;PMS3003;52200;53.490;14.376;2022-11-23T04:21:58;110.67;75.33;42.67
65556;PMS3003;52200;53.490;14.376;2022-11-23T04:24:23;112.00;72.67;42.67
65556;PMS3003;52200;53.490;14.376;2022-11-23T04:26:49;105.00;74.00;41.33
65556;PMS3003;52200;53.490;14.376;2022-11-23T04:29:14;108.33;74.67;41.67
65556;PMS3003;52200;53.490;14.376;2022-11-23T04:31:40;106.67;74.33;41.33
65556;PMS3003;52200;53.490;14.376;2022-11-23T04:34:05;110.00;74.33;42.33
65556;PMS3003;52200;53.490;14.376;2022-11-23T04:36:31;112.00;77.33;40.67
65556;PMS3003;52200;53.490;14.376;2022-11-23T04:38:57;109.00;75.25;42.75
65556;PMS3003;52200;53.490;14.376;2022-11-23T04:41:22;113.33;78.00;43.33
65556;PMS3003;52200;53.490;14.376;2022-11-23T04:43:49;110.00;76.75;43.00
65556;PMS3003;52200;53.490;14.376;2022-11-23T04:46:16;105.25;73.00;42.00
65556;PMS3003;52200;53.490;14.376;2022-11-23T04:48:41;109.25;72.50;42.00
65556;PMS3003;52200;53.490;14.376;2022-11-23T04:51:07;105.67;79.33;42.33
65556;PMS3003;52200;53.490;14.376;2022-11-23T04:53:32;107.67;74.33;43.33
65556;PMS3003;52200;53.490;14.376;2022-11-23T04:55:58;108.67;78.33;42.33
65556;PMS3003;52200;53.490;14.376;2022-11-23T04:58:23;105.00;72.33;42.00
65556;PMS3003;52200;53.490;14.376;2022-11-23T05:00:49;102.67;74.67;43.00
65556;PMS3003;52200;53.490;14.376;2022-11-23T05:03:14;113.67;75.33;42.00
65556;PMS3003;52200;53.490;14.376;2022-11-23T05:05:40;109.67;75.33;43.00
65556;PMS3003;52200;53.490;14.376;2022-11-23T05:08:06;110.33;77.33;44.33
65556;PMS3003;52200;53.490;14.376;2022-11-23T05:10:31;101.75;73.25;42.75
65556;PMS3003;52200;53.490;14.376;2022-11-23T05:12:57;109.67;75.67;41.67
65556;PMS3003;52200;53.490;14.376;2022-11-23T05:15:22;108.33;72.33;43.00
65556;PMS3003;52200;53.490;14.376;2022-11-23T05:17:48;104.33;76.00;43.33
65556;PMS3003;52200;53.490;14.376;2022-11-23T05:20:13;105.33;77.33;43.00
65556;PMS3003;52200;53.490;14.376;2022-11-23T05:22:39;107.67;74.33;43.00
65556;PMS3003;52200;53.490;14.376;2022-11-23T05:25:05;103.33;72.67;43.00
65556;PMS3003;52200;53.490;14.376;2022-11-23T05:27:31;106.50;77.75;42.75
65556;PMS3003;52200;53.490;14.376;2022-11-23T05:29:57;106.00;74.67;43.00
65556;PMS3003;52200;53.490;14.376;2022-11-23T05:32:22;110.33;75.67;42.67
65556;PMS3003;52200;53.490;14.376;2022-11-23T05:34:48;106.67;74.33;42.33
65556;PMS3003;52200;53.490;14.376;2022-11-23T05:37:14;109.00;74.75;42.25
65556;PMS3003;52200;53.490;14.376;2022-11-23T05:39:39;101.33;73.00;43.33
65556;PMS3003;52200;53.490;14.376;2022-11-23T05:42:05;105.67;72.33;42.33
65556;PMS3003;52200;53.490;14.376;2022-11-23T05:44:31;104.25;72.75;41.50
65556;PMS3003;52200;53.490;14.376;2022-11-23T05:46:56;106.00;77.00;43.00
65556;PMS3003;52200;53.490;14.376;2022-11-23T05:49:22;103.00;72.00;41.00
65556;PMS3003;52200;53.490;14.376;2022-11-23T05:51:47;107.00;73.00;42.33
65556;PMS3003;52200;53.490;14.376;2022-11-23T05:54:13;102.00;70.67;42.00
65556;PMS3003;52200;53.490;14.376;2022-11-23T05:56:38;102.33;74.00;42.33
65556;PMS3003;52200;53.490;14.376;2022-11-23T05:59:04;101.33;73.33;42.67
65556;PMS3003;52200;53.490;14.376;2022-11-23T06:01:30;104.75;76.75;43.00
65556;PMS3003;52200;53.490;14.376;2022-11-23T06:03:57;102.25;72.75;43.00
65556;PMS3003;52200;53.490;14.376;2022-11-23T06:06:22;108.00;75.00;42.67
65556;PMS3003;52200;53.490;14.376;2022-11-23T06:08:48;107.00;73.67;42.67
65556;PMS3003;52200;53.490;14.376;2022-11-23T06:11:13;100.00;71.00;40.67
65556;PMS3003;52200;53.490;14.376;2022-11-23T06:13:38;102.33;72.33;39.33
65556;PMS3003;52200;53.490;14.376;2022-11-23T06:16:04;98.67;71.33;40.00
65556;PMS3003;52200;53.490;14.376;2022-11-23T06:18:30;106.33;75.00;41.67
65556;PMS3003;52200;53.490;14.376;2022-11-23T06:21:04;106.67;76.67;42.00
65556;PMS3003;52200;53.490;14.376;2022-11-23T06:23:30;102.25;73.50;42.00
65556;PMS3003;52200;53.490;14.376;2022-11-23T06:25:58;106.67;76.33;43.00
65556;PMS3003;52200;53.490;14.376;2022-11-23T06:28:25;108.75;76.25;43.75
65556;PMS3003;52200;53.490;14.376;2022-11-23T06:30:51;103.75;74.25;41.00
65556;PMS3003;52200;53.490;14.376;2022-11-23T06:33:16;103.00;72.33;42.67
65556;PMS3003;52200;53.490;14.376;2022-11-23T06:35:50;108.33;75.00;42.67
65556;PMS3003;52200;53.490;14.376;2022-11-23T06:38:19;111.00;74.50;44.00
65556;PMS3003;52200;53.490;14.376;2022-11-23T06:40:45;104.67;74.00;40.00
65556;PMS3003;52200;53.490;14.376;2022-11-23T06:43:10;106.67;74.33;42.00
65556;PMS3003;52200;53.490;14.376;2022-11-23T06:45:36;99.33;71.33;39.67
65556;PMS3003;52200;53.490;14.376;2022-11-23T06:48:01;97.33;72.00;41.33
65556;PMS3003;52200;53.490;14.376;2022-11-23T06:50:27;104.33;72.67;42.00
65556;PMS3003;52200;53.490;14.376;2022-11-23T06:52:53;105.67;73.00;42.33
65556;PMS3003;52200;53.490;14.376;2022-11-23T06:55:22;98.25;71.25;41.25
65556;PMS3003;52200;53.490;14.376;2022-11-23T06:57:51;101.75;72.50;41.25
65556;PMS3003;52200;53.490;14.376;2022-11-23T07:00:17;103.67;76.00;41.67
65556;PMS3003;52200;53.490;14.376;2022-11-23T07:02:47;103.25;75.50;43.00
65556;PMS3003;52200;53.490;14.376;2022-11-23T07:05:16;104.00;74.00;42.25
65556;PMS3003;52200;53.490;14.376;2022-11-23T07:07:42;104.25;75.50;43.00
65556;PMS3003;52200;53.490;14.376;2022-11-23T07:10:08;100.00;71.00;40.33
65556;PMS3003;52200;53.490;14.376;2022-11-23T07:12:33;102.00;73.00;41.67
65556;PMS3003;52200;53.490;14.376;2022-11-23T07:14:59;102.67;71.00;39.67
65556;PMS3003;52200;53.490;14.376;2022-11-23T07:17:25;107.67;76.00;42.00
65556;PMS3003;52200;53.490;14.376;2022-11-23T07:19:50;105.33;77.00;44.00
65556;PMS3003;52200;53.490;14.376;2022-11-23T07:22:16;102.67;73.00;40.67
65556;PMS3003;52200;53.490;14.376;2022-11-23T07:24:41;102.67;75.00;39.67
65556;PMS3003;52200;53.490;14.376;2022-11-23T07:27:06;104.00;73.33;42.33
65556;PMS3003;52200;53.490;14.376;2022-11-23T07:29:32;108.00;79.33;44.33
65556;PMS3003;52200;53.490;14.376;2022-11-23T07:31:57;106.33;76.33;43.00
65556;PMS3003;52200;53.490;14.376;2022-11-23T07:34:23;106.33;75.67;43.00
65556;PMS3003;52200;53.490;14.376;2022-11-23T07:36:48;108.33;77.00;43.00
65556;PMS3003;52200;53.490;14.376;2022-11-23T07:39:14;105.67;75.00;42.00
65556;PMS3003;52200;53.490;14.376;2022-11-23T07:41:39;104.33;75.33;42.33
65556;PMS3003;52200;53.490;14.376;2022-11-23T07:44:05;106.33;77.00;42.33
65556;PMS3003;52200;53.490;14.376;2022-11-23T07:46:30;110.00;79.50;43.00
65556;PMS3003;52200;53.490;14.376;2022-11-23T07:48:56;104.33;75.33;42.33
65556;PMS3003;52200;53.490;14.376;2022-11-23T07:51:25;101.50;72.25;40.00
65556;PMS3003;52200;53.490;14.376;2022-11-23T07:53:51;100.33;71.33;40.67
65556;PMS3003;52200;53.490;14.376;2022-11-23T07:56:16;104.00;72.00;42.00
65556;PMS3003;52200;53.490;14.376;2022-11-23T07:58:42;102.33;74.00;42.00
65556;PMS3003;52200;53.490;14.376;2022-11-23T08:01:07;101.33;71.67;39.67
65556;PMS3003;52200;53.490;14.376;2022-11-23T08:03:33;100.67;73.33;42.33
65556;PMS3003;52200;53.490;14.376;2022-11-23T08:05:58;95.67;70.33;39.67
65556;PMS3003;52200;53.490;14.376;2022-11-23T08:08:24;102.33;69.33;39.00
65556;PMS3003;52200;53.490;14.376;2022-11-23T08:10:49;98.67;72.33;40.00
65556;PMS3003;52200;53.490;14.376;2022-11-23T08:13:15;101.33;71.00;39.67
65556;PMS3003;52200;53.490;14.376;2022-11-23T08:15:40;103.67;71.00;40.00
65556;PMS3003;52200;53.490;14.376;2022-11-23T08:18:06;102.67;70.33;39.67
65556;PMS3003;52200;53.490;14.376;2022-11-23T08:20:31;97.33;71.67;40.00
65556;PMS3003;52200;53.490;14.376;2022-11-23T08:22:57;100.00;74.50;40.50
65556;PMS3003;52200;53.490;14.376;2022-11-23T08:25:26;101.00;70.33;39.00
65556;PMS3003;52200;53.490;14.376;2022-11-23T08:28:02;103.50;71.75;40.00
65556;PMS3003;52200;53.490;14.376;2022-11-23T08:30:29;96.50;68.75;39.25
65556;PMS3003;52200;53.490;14.376;2022-11-23T08:32:55;101.25;68.75;39.00
65556;PMS3003;52200;53.490;14.376;2022-11-23T08:35:21;98.33;70.00;39.67
65556;PMS3003;52200;53.490;14.376;2022-11-23T08:37:47;99.25;69.00;39.25
65556;PMS3003;52200;53.490;14.376;2022-11-23T08:40:12;100.00;71.67;40.33
65556;PMS3003;52200;53.490;14.376;2022-11-23T08:42:38;96.25;68.00;39.50
65556;PMS3003;52200;53.490;14.376;2022-11-23T08:45:04;99.00;68.67;39.00
65556;PMS3003;52200;53.490;14.376;2022-11-23T08:47:31;102.75;72.50;39.75
65556;PMS3003;52200;53.490;14.376;2022-11-23T08:49:56;100.75;71.25;41.25
65556;PMS3003;52200;53.490;14.376;2022-11-23T08:52:22;103.00;71.00;40.00
65556;PMS3003;52200;53.490;14.376;2022-11-23T08:54:48;102.00;71.00;40.00
65556;PMS3003;52200;53.490;14.376;2022-11-23T08:57:13;103.00;73.00;40.33
65556;PMS3003;52200;53.490;14.376;2022-11-23T08:59:39;100.00;73.00;40.67
65556;PMS3003;52200;53.490;14.376;2022-11-23T09:02:04;102.00;71.00;39.00
65556;PMS3003;52200;53.490;14.376;2022-11-23T09:04:30;105.00;71.00;40.00
65556;PMS3003;52200;53.490;14.376;2022-11-23T09:06:55;103.33;75.33;43.00
65556;PMS3003;52200;53.490;14.376;2022-11-23T09:09:21;107.67;77.33;43.00
65556;PMS3003;52200;53.490;14.376;2022-11-23T09:11:46;100.00;72.67;41.00
65556;PMS3003;52200;53.490;14.376;2022-11-23T09:14:12;104.33;74.33;43.00
65556;PMS3003;52200;53.490;14.376;2022-11-23T09:16:38;105.50;77.75;42.75
65556;PMS3003;52200;53.490;14.376;2022-11-23T09:19:04;102.67;72.67;41.67
65556;PMS3003;52200;53.490;14.376;2022-11-23T09:21:31;104.50;75.50;42.75
65556;PMS3003;52200;53.490;14.376;2022-11-23T09:23:59;105.75;75.50;42.75
65556;PMS3003;52200;53.490;14.376;2022-11-23T09:26:25;104.00;71.50;41.25
65556;PMS3003;52200;53.490;14.376;2022-11-23T09:28:51;110.00;80.67;43.00
65556;PMS3003;52200;53.490;14.376;2022-11-23T09:31:16;107.33;74.33;41.67
65556;PMS3003;52200;53.490;14.376;2022-11-23T09:33:42;103.67;74.00;41.00
65556;PMS3003;52200;53.490;14.376;2022-11-23T09:36:07;99.67;73.67;42.33
65556;PMS3003;52200;53.490;14.376;2022-11-23T09:38:33;105.00;79.00;41.00
65556;PMS3003;52200;53.490;14.376;2022-11-23T09:41:11;101.33;74.00;42.00
65556;PMS3003;52200;53.490;14.376;2022-11-23T09:44:02;101.25;71.00;39.25
65556;PMS3003;52200;53.490;14.376;2022-11-23T09:49:39;96.00;69.50;41.25
65556;PMS3003;52200;53.490;14.376;2022-11-23T09:52:19;100.00;70.25;40.25
65556;PMS3003;52200;53.490;14.376;2022-11-23T09:54:48;98.00;69.75;39.25
65556;PMS3003;52200;53.490;14.376;2022-11-23T09:57:20;99.75;69.50;41.50
65556;PMS3003;52200;53.490;14.376;2022-11-23T10:00:00;105.00;71.25;39.25
65556;PMS3003;52200;53.490;14.376;2022-11-23T10:02:31;97.25;71.00;41.25
65556;PMS3003;52200;53.490;14.376;2022-11-23T10:05:03;102.25;75.00;42.25
65556;PMS3003;52200;53.490;14.376;2022-11-23T10:10:28;118.50;91.50;45.75
65556;PMS3003;52200;53.490;14.376;2022-11-23T10:15:27;96.50;73.00;43.00
65556;PMS3003;52200;53.490;14.376;2022-11-23T10:18:29;102.00;75.75;43.75
65556;PMS3003;52200;53.490;14.376;2022-11-23T10:26:37;104.00;72.67;42.33
65556;PMS3003;52200;53.490;14.376;2022-11-23T10:29:09;106.50;79.25;44.25
65556;PMS3003;52200;53.490;14.376;2022-11-23T10:31:38;100.25;77.00;43.00
65556;PMS3003;52200;53.490;14.376;2022-11-23T10:34:11;93.75;67.00;40.00
65556;PMS3003;52200;53.490;14.376;2022-11-23T10:36:40;103.50;82.00;45.00
65556;PMS3003;52200;53.490;14.376;2022-11-23T10:39:12;105.25;81.50;45.00
65556;PMS3003;52200;53.490;14.376;2022-11-23T10:41:46;102.75;83.75;44.75
65556;PMS3003;52200;53.490;14.376;2022-11-23T10:46:50;105.25;75.25;42.75
65556;PMS3003;52200;53.490;14.376;2022-11-23T10:49:16;96.67;70.33;39.33
65556;PMS3003;52200;53.490;14.376;2022-11-23T10:54:25;87.00;63.00;36.75
65556;PMS3003;52200;53.490;14.376;2022-11-23T10:57:00;88.50;64.00;36.25
65556;PMS3003;52200;53.490;14.376;2022-11-23T10:59:43;89.25;63.75;37.50
65556;PMS3003;52200;53.490;14.376;2022-11-23T11:02:25;89.00;64.00;37.75
65556;PMS3003;52200;53.490;14.376;2022-11-23T11:04:52;87.00;62.75;37.25
65556;PMS3003;52200;53.490;14.376;2022-11-23T11:08:00;87.00;62.25;36.25
65556;PMS3003;52200;53.490;14.376;2022-11-23T11:10:31;91.25;65.75;37.75
65556;PMS3003;52200;53.490;14.376;2022-11-23T11:13:00;85.25;62.50;37.00
65556;PMS3003;52200;53.490;14.376;2022-11-23T11:15:25;90.00;66.33;37.00
65556;PMS3003;52200;53.490;14.376;2022-11-23T11:17:57;88.00;63.67;36.00
65556;PMS3003;52200;53.490;14.376;2022-11-23T11:22:52;85.50;65.00;38.75
65556;PMS3003;52200;53.490;14.376;2022-11-23T11:25:28;88.50;62.50;37.00
65556;PMS3003;52200;53.490;14.376;2022-11-23T11:27:54;80.25;59.50;35.75
65556;PMS3003;52200;53.490;14.376;2022-11-23T11:30:21;89.75;67.00;37.00
65556;PMS3003;52200;53.490;14.376;2022-11-23T11:33:10;89.25;63.50;35.75
65556;PMS3003;52200;53.490;14.376;2022-11-23T11:35:48;86.50;64.50;36.50
65556;PMS3003;52200;53.490;14.376;2022-11-23T11:38:27;93.50;66.75;37.75
65556;PMS3003;52200;53.490;14.376;2022-11-23T11:40:59;89.50;63.00;37.00
65556;PMS3003;52200;53.490;14.376;2022-11-23T11:46:03;91.50;64.50;37.50
65556;PMS3003;52200;53.490;14.376;2022-11-23T11:48:35;88.50;64.00;37.00
65556;PMS3003;52200;53.490;14.376;2022-11-23T11:51:31;88.50;66.50;37.00
65556;PMS3003;52200;53.490;14.376;2022-11-23T11:54:19;86.75;61.75;36.00
65556;PMS3003;52200;53.490;14.376;2022-11-23T11:56:50;92.75;66.75;38.75
65556;PMS3003;52200;53.490;14.376;2022-11-23T11:59:27;91.25;66.75;39.00
65556;PMS3003;52200;53.490;14.376;2022-11-23T12:02:24;85.25;62.25;37.50
65556;PMS3003;52200;53.490;14.376;2022-11-23T12:10:39;86.50;63.00;38.00
65556;PMS3003;52200;53.490;14.376;2022-11-23T12:13:12;92.25;66.75;37.00
65556;PMS3003;52200;53.490;14.376;2022-11-23T12:15:43;92.75;66.50;38.75
65556;PMS3003;52200;53.490;14.376;2022-11-23T12:21:04;97.25;70.50;40.75
65556;PMS3003;52200;53.490;14.376;2022-11-23T12:29:34;95.25;67.50;37.50
65556;PMS3003;52200;53.490;14.376;2022-11-23T12:34:59;90.75;64.00;37.50
65556;PMS3003;52200;53.490;14.376;2022-11-23T12:38:08;89.50;66.50;37.75
65556;PMS3003;52200;53.490;14.376;2022-11-23T12:41:01;95.75;68.00;38.25
65556;PMS3003;52200;53.490;14.376;2022-11-23T12:49:52;88.25;64.75;37.00
65556;PMS3003;52200;53.490;14.376;2022-11-23T12:52:30;89.50;65.50;36.75
65556;PMS3003;52200;53.490;14.376;2022-11-23T13:00:13;99.50;66.25;39.25
65556;PMS3003;52200;53.490;14.376;2022-11-23T13:15:34;91.25;67.00;38.25
65556;PMS3003;52200;53.490;14.376;2022-11-23T13:18:19;88.50;65.25;37.75
65556;PMS3003;52200;53.490;14.376;2022-11-23T13:23:37;90.25;65.50;38.50
65556;PMS3003;52200;53.490;14.376;2022-11-23T13:26:17;92.25;66.25;38.00
65556;PMS3003;52200;53.490;14.376;2022-11-23T13:28:50;90.75;64.50;37.75
65556;PMS3003;52200;53.490;14.376;2022-11-23T13:31:18;88.25;64.75;38.25
65556;PMS3003;52200;53.490;14.376;2022-11-23T13:33:57;98.75;69.75;38.50
65556;PMS3003;52200;53.490;14.376;2022-11-23T13:36:35;94.75;66.50;38.75
65556;PMS3003;52200;53.490;14.376;2022-11-23T13:42:11;93.25;67.75;39.25
65556;PMS3003;52200;53.490;14.376;2022-11-23T13:44:37;96.00;68.75;40.00
65556;PMS3003;52200;53.490;14.376;2022-11-23T13:47:04;100.67;69.67;40.33
65556;PMS3003;52200;53.490;14.376;2022-11-23T13:49:48;93.75;67.25;39.00
65556;PMS3003;52200;53.490;14.376;2022-11-23T13:57:38;94.50;67.50;40.00
65556;PMS3003;52200;53.490;14.376;2022-11-23T14:03:53;93.50;69.75;41.00
65556;PMS3003;52200;53.490;14.376;2022-11-23T14:06:20;95.25;68.75;39.75
65556;PMS3003;52200;53.490;14.376;2022-11-23T14:11:27;105.67;78.67;43.67
65556;PMS3003;52200;53.490;14.376;2022-11-23T14:13:58;100.00;69.75;41.25
65556;PMS3003;52200;53.490;14.376;2022-11-23T14:21:54;93.50;69.25;41.50
65556;PMS3003;52200;53.490;14.376;2022-11-23T14:24:45;100.50;71.00;41.25
65556;PMS3003;52200;53.490;14.376;2022-11-23T14:30:28;98.50;72.75;41.75
65556;PMS3003;52200;53.490;14.376;2022-11-23T14:41:27;99.75;76.00;44.25
65556;PMS3003;52200;53.490;14.376;2022-11-23T14:44:00;106.75;80.25;43.50
65556;PMS3003;52200;53.490;14.376;2022-11-23T14:46:27;102.75;77.50;43.50
65556;PMS3003;52200;53.490;14.376;2022-11-23T14:49:01;103.33;80.33;44.00
65556;PMS3003;52200;53.490;14.376;2022-11-23T14:51:29;102.50;72.50;43.00
65556;PMS3003;52200;53.490;14.376;2022-11-23T14:53:56;96.67;72.00;40.67
65556;PMS3003;52200;53.490;14.376;2022-11-23T14:56:30;106.25;75.00;42.75
65556;PMS3003;52200;53.490;14.376;2022-11-23T14:59:09;99.00;75.00;41.75
65556;PMS3003;52200;53.490;14.376;2022-11-23T15:01:44;99.25;74.00;43.00
65556;PMS3003;52200;53.490;14.376;2022-11-23T15:04:26;101.00;75.50;42.75
65556;PMS3003;52200;53.490;14.376;2022-11-23T15:06:59;100.00;72.50;41.25
65556;PMS3003;52200;53.490;14.376;2022-11-23T15:09:45;98.50;75.00;42.75
65556;PMS3003;52200;53.490;14.376;2022-11-23T15:12:42;98.25;73.00;43.00
65556;PMS3003;52200;53.490;14.376;2022-11-23T15:15:16;102.25;81.50;43.75
65556;PMS3003;52200;53.490;14.376;2022-11-23T15:17:53;103.00;76.50;43.25
65556;PMS3003;52200;53.490;14.376;2022-11-23T15:20:21;104.50;79.00;43.00